This is the latest recevied weather packets stored in our database for station/object IU6BJT. If no packets are shown the sender has not sent any weather packets the latest 10 day(s).
| Time | Temp. | Humidity | Pressure | Rain* | Wind** | Luminosity | Snow |
|---|---|---|---|---|---|---|---|
| 1777836017 | 17.78° C | 61% | 1016.6 hPa | 0 mm | - | - | - |
| 1777830029 | 20.56° C | 52% | 1016.1 hPa | 0 mm | - | - | - |
| 1777827034 | 21.11° C | 50% | 1016.3 hPa | 0 mm | - | - | - |
| 1777826431 | 21.11° C | 51% | 1016.4 hPa | 0 mm | - | - | - |
| 1777822836 | 21.11° C | 53% | 1016.7 hPa | 0 mm | - | - | - |
| 1777822231 | 21.11° C | 54% | 1016.8 hPa | 0 mm | - | - | - |
| 1777815620 | 21.11° C | 56% | 1017.7 hPa | 0 mm | - | - | - |
| 1777815017 | 21.11° C | 55% | 1017.8 hPa | 0 mm | - | - | - |
| 1777813228 | 21.11° C | 52% | 1018.1 hPa | 0 mm | - | - | - |
| 1777804224 | 24.44° C | 34% | 1018.7 hPa | 0 mm | - | - | - |
| 1777800024 | 25° C | 31% | 1019.4 hPa | 0 mm | - | - | - |
| 1777796426 | 22.22° C | 39% | 1019.7 hPa | 0 mm | - | - | - |
| 1777794055 | 20.56° C | 44% | 1019.8 hPa | 0 mm | - | - | - |
| 1777791021 | 16.67° C | 52% | 1019.7 hPa | 0 mm | - | - | - |
| 1777786217 | 11.67° C | 66% | 1019.7 hPa | 0 mm | - | - | - |
| 1777778440 | 9.44° C | 76% | 1019.4 hPa | 0 mm | - | - | - |
| 1777773616 | 8.89° C | 78% | 1019.7 hPa | 0 mm | - | - | - |
| 1777772431 | 8.89° C | 78% | 1019.8 hPa | 0 mm | - | - | - |
| 1777771225 | 9.44° C | 77% | 1020 hPa | 0 mm | - | - | - |
| 1777769456 | 9.44° C | 77% | 1020.2 hPa | 0 mm | - | - | - |
| 1777758624 | 11.11° C | 69% | 1021.4 hPa | 0 mm | - | - | - |
| 1777755047 | 11.67° C | 66% | 1021.5 hPa | 0 mm | - | - | - |
| 1777749039 | 13.33° C | 55% | 1021.2 hPa | 0 mm | - | - | - |
| 1777743633 | 20° C | 29% | 1021.1 hPa | 0 mm | - | - | - |
| 1777740056 | 20° C | 30% | 1021.5 hPa | 0 mm | - | - | - |
* Rain latest hour (hover to see other rain measurements)
** Current wind speed in m/s (hover to see current wind gust speed)